createdAt,value
2019-04-22T00:00:38.460Z,960.10
2019-04-22T00:01:35.022Z,960.11
2019-04-22T00:02:40.110Z,960.07
2019-04-22T00:03:43.215Z,960.11
2019-04-22T00:04:47.560Z,960.05
2019-04-22T00:05:55.193Z,960.06
2019-04-22T00:06:58.326Z,960.11
2019-04-22T00:08:06.181Z,960.10
2019-04-22T00:09:03.288Z,960.08
2019-04-22T00:09:53.070Z,960.04
2019-04-22T00:11:06.367Z,960.08
2019-04-22T00:11:59.280Z,959.99
2019-04-22T00:13:01.355Z,959.97
2019-04-22T00:13:57.109Z,959.96
2019-04-22T00:14:55.496Z,959.94
2019-04-22T00:15:56.530Z,959.94
2019-04-22T00:17:00.459Z,959.93
2019-04-22T00:18:07.483Z,959.90
2019-04-22T00:20:06.069Z,959.87
2019-04-22T00:20:59.803Z,959.85
2019-04-22T00:22:02.845Z,959.88
2019-04-22T00:22:57.797Z,959.85
2019-04-22T00:23:57.872Z,959.84
2019-04-22T00:25:05.551Z,959.84
2019-04-22T00:26:01.905Z,959.84
2019-04-22T00:26:59.990Z,959.83
2019-04-22T00:28:05.073Z,959.80
2019-04-22T00:29:08.188Z,959.87
2019-04-22T00:30:54.838Z,959.78
2019-04-22T00:31:58.937Z,959.81
2019-04-22T00:32:57.620Z,959.78
2019-04-22T00:33:59.165Z,959.77
2019-04-22T00:34:53.562Z,959.77
2019-04-22T00:35:54.773Z,959.76
2019-04-22T00:36:54.512Z,959.77
2019-04-22T00:37:56.925Z,959.69
2019-04-22T00:38:59.167Z,959.73
2019-04-22T00:40:14.863Z,959.74
2019-04-22T00:41:00.930Z,959.71
2019-04-22T00:41:56.485Z,959.71
2019-04-22T00:44:08.839Z,959.70
2019-04-22T00:45:02.765Z,959.72
2019-04-22T00:45:55.888Z,959.74
2019-04-22T00:46:52.268Z,959.72
2019-04-22T00:48:02.455Z,959.71
2019-04-22T00:49:51.087Z,959.66
2019-04-22T00:51:04.245Z,959.71
2019-04-22T00:52:03.308Z,959.71
2019-04-22T00:52:59.809Z,959.71
2019-04-22T00:53:58.644Z,959.68
2019-04-22T00:55:04.113Z,959.66
2019-04-22T00:55:54.932Z,959.66
2019-04-22T00:56:55.900Z,959.65
2019-04-22T00:57:56.167Z,959.60
2019-04-22T00:58:50.585Z,959.62
2019-04-22T01:00:03.680Z,959.58
2019-04-22T01:00:54.574Z,959.54
2019-04-22T01:02:01.968Z,959.54
2019-04-22T01:03:02.625Z,959.54
2019-04-22T01:04:54.849Z,959.51
2019-04-22T01:05:55.353Z,959.50
2019-04-22T01:06:51.243Z,959.49
2019-04-22T01:08:04.428Z,959.46
2019-04-22T01:09:00.192Z,959.48
2019-04-22T01:09:58.933Z,959.45
2019-04-22T01:11:00.072Z,959.48
2019-04-22T01:11:53.675Z,959.46
2019-04-22T01:12:56.946Z,959.41
2019-04-22T01:13:55.732Z,959.42
2019-04-22T01:14:53.818Z,959.42
2019-04-22T01:16:01.518Z,959.46
2019-04-22T01:16:54.814Z,959.42
2019-04-22T01:17:52.911Z,959.45
2019-04-22T01:18:53.840Z,959.34
2019-04-22T01:19:58.693Z,959.34
2019-04-22T01:21:06.561Z,959.35
2019-04-22T01:21:51.791Z,959.35
2019-04-22T01:22:56.302Z,959.35
2019-04-22T01:23:53.756Z,959.33
2019-04-22T01:24:52.282Z,959.29
2019-04-22T01:25:46.303Z,959.37
2019-04-22T01:26:43.430Z,959.30
2019-04-22T01:27:44.654Z,959.32
2019-04-22T01:28:39.547Z,959.25
2019-04-22T01:29:42.382Z,959.24
2019-04-22T01:30:39.625Z,959.27
2019-04-22T01:31:33.030Z,959.22
2019-04-22T01:32:34.979Z,959.16
2019-04-22T01:33:35.312Z,959.22
2019-04-22T01:34:46.075Z,959.22
2019-04-22T01:35:38.609Z,959.23
2019-04-22T01:36:51.628Z,959.21
2019-04-22T01:37:46.096Z,959.21
2019-04-22T01:38:56.349Z,959.19
2019-04-22T01:39:57.508Z,959.19
2019-04-22T01:40:52.589Z,959.18
2019-04-22T01:42:05.668Z,959.19
2019-04-22T01:42:50.386Z,959.14
2019-04-22T01:44:00.677Z,959.15
2019-04-22T01:44:53.362Z,959.11
2019-04-22T01:45:56.174Z,959.09
2019-04-22T01:47:53.305Z,959.09
2019-04-22T01:48:57.770Z,959.10
2019-04-22T01:49:55.599Z,959.12
2019-04-22T01:50:51.716Z,959.08
2019-04-22T01:52:58.935Z,959.07
2019-04-22T01:53:57.948Z,959.10
2019-04-22T01:54:58.540Z,959.08
2019-04-22T01:55:52.207Z,959.02
2019-04-22T01:56:55.969Z,958.97
2019-04-22T01:57:47.709Z,958.96
2019-04-22T01:58:48.303Z,958.96
2019-04-22T01:59:45.718Z,958.91
2019-04-22T02:00:53.676Z,958.96
2019-04-22T02:03:12.735Z,958.87
2019-04-22T02:03:54.606Z,958.88
2019-04-22T02:04:53.663Z,958.83
2019-04-22T02:05:53.631Z,958.86
2019-04-22T02:07:54.291Z,958.86
2019-04-22T02:09:56.095Z,958.81
2019-04-22T02:10:55.053Z,958.82
2019-04-22T02:11:56.361Z,958.84
2019-04-22T02:12:54.056Z,958.79
2019-04-22T02:14:02.818Z,958.79
2019-04-22T02:15:52.497Z,958.79
2019-04-22T02:16:58.036Z,958.81
2019-04-22T02:17:54.719Z,958.73
2019-04-22T02:18:53.313Z,958.73
2019-04-22T02:20:02.623Z,958.75
2019-04-22T02:20:48.818Z,958.73
2019-04-22T02:21:51.675Z,958.74
2019-04-22T02:23:17.631Z,958.69
2019-04-22T02:24:02.171Z,958.72
2019-04-22T02:24:50.928Z,958.71
2019-04-22T02:25:56.393Z,958.70
2019-04-22T02:26:51.924Z,958.67
2019-04-22T02:27:54.622Z,958.70
2019-04-22T02:28:47.657Z,958.66
2019-04-22T02:30:01.450Z,958.63
2019-04-22T02:31:13.957Z,958.64
2019-04-22T02:31:59.072Z,958.64
2019-04-22T02:33:18.413Z,958.61
2019-04-22T02:34:09.648Z,958.58
2019-04-22T02:35:11.280Z,958.57
2019-04-22T02:36:15.132Z,958.56
2019-04-22T02:38:00.451Z,958.57
2019-04-22T02:39:57.708Z,958.55
2019-04-22T02:41:21.049Z,958.55
2019-04-22T02:41:54.703Z,958.57
2019-04-22T02:43:01.350Z,958.54
2019-04-22T02:44:01.716Z,958.53
2019-04-22T02:46:12.827Z,958.52
2019-04-22T02:49:11.715Z,958.50
2019-04-22T02:49:58.959Z,958.48
2019-04-22T02:51:04.402Z,958.48
2019-04-22T02:52:14.012Z,958.48
2019-04-22T02:52:51.287Z,958.46
2019-04-22T02:55:02.084Z,958.43
2019-04-22T02:56:06.138Z,958.42
2019-04-22T02:56:48.636Z,958.41
2019-04-22T02:57:49.117Z,958.39
2019-04-22T02:59:04.226Z,958.39
2019-04-22T03:00:00.992Z,958.34
2019-04-22T03:00:56.336Z,958.29
2019-04-22T03:01:47.504Z,958.27
2019-04-22T03:03:09.110Z,958.25
2019-04-22T03:04:57.940Z,958.26
2019-04-22T03:08:02.422Z,958.23
2019-04-22T03:09:59.616Z,958.23
2019-04-22T03:11:07.135Z,958.28
2019-04-22T03:12:04.565Z,958.24
2019-04-22T03:12:52.208Z,958.25
2019-04-22T03:13:55.126Z,958.20
2019-04-22T03:14:48.197Z,958.23
2019-04-22T03:16:05.827Z,958.25
2019-04-22T03:17:58.427Z,958.21
2019-04-22T03:20:58.224Z,958.21
2019-04-22T03:21:54.545Z,958.19
2019-04-22T03:22:59.984Z,958.11
2019-04-22T03:25:11.627Z,958.15
2019-04-22T03:27:48.273Z,958.10
2019-04-22T03:30:26.425Z,958.13
2019-04-22T03:34:21.407Z,958.09
2019-04-22T03:38:07.259Z,958.05
2019-04-22T03:40:55.347Z,958.06
2019-04-22T03:42:57.771Z,958.03
2019-04-22T03:44:20.760Z,958.04
2019-04-22T03:45:37.893Z,958.01
2019-04-22T03:47:57.560Z,957.99
2019-04-22T03:49:02.290Z,958.03
2019-04-22T03:52:53.086Z,957.88
2019-04-22T03:54:04.828Z,957.97
2019-04-22T03:55:00.693Z,957.91
2019-04-22T03:55:57.568Z,957.90
2019-04-22T03:57:17.717Z,957.89
2019-04-22T03:58:57.153Z,957.86
2019-04-22T04:00:55.774Z,957.88
2019-04-22T04:01:53.388Z,957.94
2019-04-22T04:02:59.537Z,957.94
2019-04-22T04:04:07.506Z,957.96
2019-04-22T04:04:49.489Z,957.93
2019-04-22T04:06:00.305Z,957.92
2019-04-22T04:07:01.925Z,957.91
2019-04-22T04:08:53.298Z,957.91
2019-04-22T04:10:01.104Z,957.93
2019-04-22T04:10:48.378Z,957.94
2019-04-22T04:11:59.237Z,957.93
2019-04-22T04:13:53.992Z,957.88
2019-04-22T04:15:00.114Z,957.89
2019-04-22T04:15:40.549Z,957.89
2019-04-22T04:16:56.172Z,957.91
2019-04-22T04:17:51.394Z,957.89
2019-04-22T04:21:46.998Z,957.96
2019-04-22T04:24:02.939Z,957.93
2019-04-22T04:25:17.158Z,957.91
2019-04-22T04:25:48.200Z,957.92
2019-04-22T04:26:57.210Z,957.94
2019-04-22T04:30:51.324Z,957.90
2019-04-22T04:31:58.290Z,957.88
2019-04-22T04:33:51.839Z,957.84
2019-04-22T04:35:07.207Z,957.86
2019-04-22T04:36:01.501Z,957.82
2019-04-22T04:36:54.834Z,957.85
2019-04-22T04:39:53.143Z,957.77
2019-04-22T04:41:06.315Z,957.78
2019-04-22T04:41:51.882Z,957.82
2019-04-22T04:42:53.672Z,957.82
2019-04-22T04:43:56.438Z,957.81
2019-04-22T04:45:18.984Z,957.83
2019-04-22T04:49:52.304Z,957.85
2019-04-22T04:50:58.638Z,957.84
2019-04-22T04:51:47.203Z,957.86
2019-04-22T04:53:01.466Z,957.89
2019-04-22T04:54:58.824Z,957.86
2019-04-22T04:55:47.152Z,957.88
2019-04-22T04:56:57.045Z,957.86
2019-04-22T04:57:57.454Z,957.90
2019-04-22T05:00:58.055Z,957.92
2019-04-22T05:02:06.414Z,957.86
2019-04-22T05:04:04.934Z,957.87
2019-04-22T05:04:59.485Z,957.90
2019-04-22T05:05:47.609Z,957.86
2019-04-22T05:07:01.857Z,957.86
2019-04-22T05:09:46.278Z,957.89
2019-04-22T05:11:53.968Z,957.83
2019-04-22T05:14:50.467Z,957.85
2019-04-22T05:18:44.636Z,957.84
2019-04-22T05:19:50.343Z,957.82
2019-04-22T05:20:55.523Z,957.80
2019-04-22T05:21:40.714Z,957.78
2019-04-22T05:22:43.152Z,957.80
2019-04-22T05:23:47.097Z,957.84
2019-04-22T05:24:42.573Z,957.81
2019-04-22T05:25:31.691Z,957.80
2019-04-22T05:26:39.672Z,957.82
2019-04-22T05:27:40.118Z,957.84
2019-04-22T05:28:40.151Z,957.81
2019-04-22T05:30:40.712Z,957.81
2019-04-22T05:31:43.547Z,957.78
2019-04-22T05:32:59.629Z,957.82
2019-04-22T05:33:41.125Z,957.82
2019-04-22T05:34:42.866Z,957.79
2019-04-22T05:35:38.982Z,957.83
2019-04-22T05:36:42.579Z,957.81
2019-04-22T05:37:40.499Z,957.80
2019-04-22T05:38:49.515Z,957.82
2019-04-22T05:39:38.876Z,957.78
2019-04-22T05:40:50.161Z,957.84
2019-04-22T05:41:54.705Z,957.76
2019-04-22T05:42:39.676Z,957.80
2019-04-22T05:43:41.047Z,957.76
2019-04-22T05:44:41.270Z,957.76
2019-04-22T05:45:33.087Z,957.75
2019-04-22T05:46:34.491Z,957.75
2019-04-22T05:47:40.361Z,957.74
2019-04-22T05:48:37.996Z,957.76
2019-04-22T05:49:34.773Z,957.70
2019-04-22T05:50:37.291Z,957.70
2019-04-22T05:51:36.999Z,957.70
2019-04-22T05:52:34.471Z,957.70
2019-04-22T05:53:32.507Z,957.70
2019-04-22T05:54:38.964Z,957.72
2019-04-22T05:55:42.631Z,957.71
2019-04-22T05:56:38.649Z,957.71
2019-04-22T05:57:37.234Z,957.68
2019-04-22T05:58:39.808Z,957.68
2019-04-22T05:59:39.715Z,957.69
2019-04-22T06:01:05.720Z,957.71
2019-04-22T06:01:43.216Z,957.68
2019-04-22T06:02:47.603Z,957.70
2019-04-22T06:03:39.008Z,957.70
2019-04-22T06:04:36.820Z,957.65
2019-04-22T06:05:38.671Z,957.70
2019-04-22T06:06:36.996Z,957.69
2019-04-22T06:07:36.875Z,957.68
2019-04-22T06:08:42.389Z,957.63
2019-04-22T06:09:32.349Z,957.65
2019-04-22T06:10:41.123Z,957.63
2019-04-22T06:11:33.877Z,957.65
2019-04-22T06:12:23.438Z,957.67
2019-04-22T06:13:33.056Z,957.63
2019-04-22T06:14:30.748Z,957.61
2019-04-22T06:15:36.329Z,957.57
2019-04-22T06:16:38.061Z,957.64
2019-04-22T06:17:45.630Z,957.57
2019-04-22T06:18:33.353Z,957.63
2019-04-22T06:19:33.321Z,957.60
2019-04-22T06:20:42.064Z,957.66
2019-04-22T06:21:40.124Z,957.64
2019-04-22T06:22:45.003Z,957.66
2019-04-22T06:23:40.275Z,957.65
2019-04-22T06:24:31.392Z,957.67
2019-04-22T06:25:51.342Z,957.68
2019-04-22T06:26:45.814Z,957.71
2019-04-22T06:27:37.480Z,957.71
2019-04-22T06:29:32.029Z,957.70
2019-04-22T06:30:37.555Z,957.69
2019-04-22T06:31:52.664Z,957.70
2019-04-22T06:32:47.235Z,957.67
2019-04-22T06:33:34.665Z,957.67
2019-04-22T06:34:35.701Z,957.64
2019-04-22T06:35:36.414Z,957.69
2019-04-22T06:36:37.852Z,957.60
2019-04-22T06:37:37.973Z,957.59
2019-04-22T06:38:33.998Z,957.59
2019-04-22T06:39:34.378Z,957.56
2019-04-22T06:40:32.840Z,957.55
2019-04-22T06:41:35.378Z,957.54
2019-04-22T06:42:37.758Z,957.58
2019-04-22T06:43:38.482Z,957.52
2019-04-22T06:44:36.588Z,957.54
2019-04-22T06:45:37.353Z,957.58
2019-04-22T06:46:33.594Z,957.54
2019-04-22T06:47:52.716Z,957.55
2019-04-22T06:48:33.056Z,957.48
2019-04-22T06:49:35.197Z,957.51
2019-04-22T06:50:38.448Z,957.47
2019-04-22T06:51:32.493Z,957.45
2019-04-22T06:52:28.159Z,957.44
2019-04-22T06:53:39.181Z,957.47
2019-04-22T06:54:32.925Z,957.43
2019-04-22T06:55:35.605Z,957.42
2019-04-22T06:56:27.799Z,957.39
2019-04-22T06:57:30.534Z,957.39
2019-04-22T06:58:34.985Z,957.36
2019-04-22T06:59:31.158Z,957.32
2019-04-22T07:01:40.517Z,957.32
2019-04-22T07:02:45.215Z,957.31
2019-04-22T07:03:41.661Z,957.28
2019-04-22T07:04:33.663Z,957.27
2019-04-22T07:05:32.939Z,957.27
2019-04-22T07:06:34.958Z,957.34
2019-04-22T07:07:35.169Z,957.34
2019-04-22T07:09:34.976Z,957.29
2019-04-22T07:10:36.688Z,957.30
2019-04-22T07:11:33.929Z,957.27
2019-04-22T07:12:30.480Z,957.30
2019-04-22T07:14:28.579Z,957.20
2019-04-22T07:17:38.016Z,957.22
2019-04-22T07:19:36.155Z,957.21
2019-04-22T07:20:42.164Z,957.20
2019-04-22T07:21:30.607Z,957.15
2019-04-22T07:23:34.942Z,957.14
2019-04-22T07:24:40.669Z,957.12
2019-04-22T07:25:29.109Z,957.08
2019-04-22T07:26:27.546Z,957.06
2019-04-22T07:27:27.820Z,957.04
2019-04-22T07:28:27.376Z,957.01
2019-04-22T07:29:32.694Z,957.05
2019-04-22T07:31:29.020Z,957.00
2019-04-22T07:32:53.527Z,957.02
2019-04-22T07:33:34.607Z,957.04
2019-04-22T07:34:33.322Z,957.08
2019-04-22T07:35:35.998Z,956.98
2019-04-22T07:37:43.541Z,956.98
2019-04-22T07:38:26.876Z,956.99
2019-04-22T07:39:32.580Z,957.00
2019-04-22T07:40:34.158Z,956.91
2019-04-22T07:41:31.752Z,956.99
2019-04-22T07:42:32.561Z,956.97
2019-04-22T07:43:40.406Z,956.93
2019-04-22T07:44:32.476Z,956.91
2019-04-22T07:45:32.509Z,956.96
2019-04-22T07:46:33.635Z,956.90
2019-04-22T07:47:35.864Z,956.88
2019-04-22T07:48:49.932Z,956.86
2019-04-22T07:49:33.594Z,956.83
2019-04-22T07:50:44.771Z,956.82
2019-04-22T07:51:32.770Z,956.87
2019-04-22T07:52:27.606Z,956.86
2019-04-22T07:53:27.864Z,956.86
2019-04-22T07:54:26.458Z,956.81
2019-04-22T07:55:27.619Z,956.81
2019-04-22T07:56:29.336Z,956.81
2019-04-22T07:58:30.742Z,956.84
2019-04-22T07:59:28.053Z,956.81
2019-04-22T08:00:31.156Z,956.87
2019-04-22T08:01:26.698Z,956.88
2019-04-22T08:02:32.784Z,956.89
2019-04-22T08:03:37.545Z,956.87
2019-04-22T08:05:41.600Z,956.86
2019-04-22T08:06:31.327Z,956.84
2019-04-22T08:07:31.627Z,956.77
2019-04-22T08:09:40.805Z,956.82
2019-04-22T08:12:34.296Z,956.73
2019-04-22T08:13:30.784Z,956.74
2019-04-22T08:14:31.393Z,956.74
2019-04-22T08:15:27.304Z,956.63
